Airfield :
LOGIN :

Register | Disclaimer

   EN    FR    IT 

 










Legend :    VFR   Marginal VFR   IFR   Intensive IFR   Very Intensive IFR
Visi :
Ceiling :
>= 8 km
>= 3000ft
5 to 8 km
1000 to 3000 ft
1500m to 5 km
500 to 1000 ft
800 to 1500m
200 to 500 ft
< 800m
< 200 ft
Symbols :   Thunderstorms  Fog  Heavy snow  Heavy precipitations  Wind > 20 kt
SIGMETs :     Misc.  Thunderstorms  Icing  Turbulence  Mountain Waves  Volcanic Ashes







- Airport Elevation : 1487 ft
- IATA code : MUC


EDDM - München Franz Josef Strauss

CURRENT METAR :
  • 251720Z VRB04KT CAVOK 18/09 Q1022 NOSIG

EXPIRED METARs :
  • 251650Z 26005KT 9999 FEW048 BKN080 19/08 Q1022 NOSIG
  • 251620Z 25006KT 200V280 9999 FEW045 BKN080 19/08 Q1022 NOSIG
  • 251550Z 29003KT 220V010 9999 FEW042 BKN080 19/09 Q1022 NOSIG
  • 251520Z 28003KT 240V360 9999 SCT042 BKN080 18/09 Q1022 NOSIG
  • 251450Z VRB03KT 9999 SCT042 BKN080 19/09 Q1022 NOSIG

TAF TAF EDDM
Valid from the 25 at 18:00 until the 27 at 00:00 UTC


251700Z 2518/2624 30004KT 9999 SCT040
No reported NOTAMs for that airfield.



MET'MAP, your aeronautical weather chart ! - Copyright ORBIFLY December 2007 - Disclaimer

ORBIFLY MET'MAP TEAM :

Programming & Development : Alexandra Zaïnal
Concept & Development : Baudouin d'Aumeries
Co-Development & Prog : Marc-Olivier Méhu
Technical & hardware support : Manuel Goepfert

Contact : metmap@orbifly.com




SOURCES & CREDITS :

   NOAA